Time;durP1;ratioP1;P1;durP2;ratioP2;P2;SDS_P1;SDS_P2;PMS_P1;PMS_P2;Temp;Humidity;BMP_temperature;BMP_pressure;BME280_temperature;BME280_humidity;BME280_pressure;Samples;Min_cycle;Max_cycle;Signal;HPM_P1;HPM_P2
2022/09/03 00:02:46;;;;;;;11.65;6.80;;;;;;;9.36;71.67;97417.69;1728049;83;25665;-89
2022/09/03 00:05:24;;;;;;;10.15;5.80;;;;;;;9.33;71.75;97422.13;1693617;82;27335;-88
2022/09/03 00:08:34;;;;;;;9.55;6.22;;;;;;;9.27;71.82;97414.87;1692843;83;26027;-90
2022/09/03 00:11:23;;;;;;;12.98;6.47;;;;;;;9.28;71.92;97424.61;1696262;82;25882;-89
2022/09/03 00:14:03;;;;;;;11.20;6.28;;;;;;;9.29;71.86;97419.54;1696471;84;25988;-91
2022/09/03 00:16:50;;;;;;;8.60;5.83;;;;;;;9.24;71.81;97419.30;1714311;82;25333;-90
2022/09/03 00:19:24;;;;;;;10.40;6.20;;;;;;;9.23;71.82;97416.30;1681631;82;27384;-89
2022/09/03 00:22:11;;;;;;;7.92;5.47;;;;;;;9.18;71.91;97412.02;1671989;84;26294;-89
2022/09/03 00:24:41;;;;;;;8.88;5.75;;;;;;;9.16;71.89;97406.03;1697670;82;25740;-87
2022/09/03 00:27:18;;;;;;;7.78;5.72;;;;;;;9.13;72.04;97409.13;1708939;82;26514;-90
2022/09/03 00:29:58;;;;;;;12.95;6.40;;;;;;;9.06;71.96;97412.31;1730849;82;25827;-90
2022/09/03 00:32:51;;;;;;;11.43;6.37;;;;;;;9.03;72.01;97411.69;1743809;81;28231;-88
2022/09/03 00:35:38;;;;;;;13.88;6.22;;;;;;;9.03;72.09;97410.34;1735474;82;25940;-90
2022/09/03 00:38:05;;;;;;;12.50;6.85;;;;;;;9.01;72.08;97412.39;1711889;81;25738;-89
2022/09/03 00:40:55;;;;;;;9.33;6.15;;;;;;;8.92;71.94;97410.91;1706073;82;25801;-89
2022/09/03 00:43:51;;;;;;;11.63;5.65;;;;;;;8.89;72.16;97413.17;1710540;82;25853;-87
2022/09/03 00:46:32;;;;;;;9.53;6.03;;;;;;;8.89;72.24;97414.00;1713204;81;28388;-87
2022/09/03 00:49:25;;;;;;;9.78;6.45;;;;;;;8.87;72.15;97408.50;1694199;82;25271;-87
2022/09/03 00:52:01;;;;;;;;;;;;;;;8.80;72.05;97405.79;1716910;82;25807;-87
2022/09/03 00:54:56;;;;;;;8.43;5.67;;;;;;;8.75;72.41;97404.20;1714267;82;26725;-87
2022/09/03 00:57:52;;;;;;;11.53;6.58;;;;;;;8.64;72.13;97410.98;1691230;82;25993;-86
2022/09/03 01:00:20;;;;;;;11.48;6.12;;;;;;;8.59;72.34;97402.66;1704056;82;27399;-87
2022/09/03 01:03:10;;;;;;;11.80;6.55;;;;;;;8.54;72.44;97401.09;1697331;82;25487;-87
2022/09/03 01:06:10;;;;;;;11.25;6.22;;;;;;;8.54;72.51;97399.75;1710918;82;25700;-88
2022/09/03 01:09:03;;;;;;;9.58;6.15;;;;;;;8.51;72.48;97410.07;1692745;82;25827;-87
2022/09/03 01:12:12;;;;;;;10.98;6.00;;;;;;;8.45;72.56;97406.30;1700165;82;25687;-87
2022/09/03 01:15:04;;;;;;;11.30;6.58;;;;;;;8.44;72.65;97410.56;1662742;83;28110;-87
2022/09/03 01:17:47;;;;;;;8.53;5.53;;;;;;;8.43;72.71;97408.89;1688961;83;25900;-86
2022/09/03 01:20:40;;;;;;;9.80;6.60;;;;;;;8.43;72.85;97399.48;1723780;82;25721;-87
2022/09/03 01:23:34;;;;;;;9.08;6.25;;;;;;;8.43;72.77;97404.34;1699901;82;25844;-87
2022/09/03 01:26:50;;;;;;;11.25;6.78;;;;;;;8.38;72.63;97396.54;1710039;80;25792;-87
2022/09/03 01:29:33;;;;;;;8.05;5.65;;;;;;;8.29;72.76;97398.02;1718639;81;26790;-87
2022/09/03 01:32:20;;;;;;;9.38;6.10;;;;;;;8.29;73.03;97398.02;1723595;82;25949;-87
2022/09/03 01:35:03;;;;;;;8.45;6.25;;;;;;;8.32;72.94;97387.94;1736008;82;25300;-87
2022/09/03 01:38:23;;;;;;;10.50;6.25;;;;;;;8.25;73.05;97384.64;1735302;82;25843;-86
2022/09/03 01:44:22;;;;;;;7.97;5.87;;;;;;;8.23;73.13;97386.69;1710824;82;28217;-88
2022/09/03 01:46:57;;;;;;;10.35;6.10;;;;;;;8.18;73.21;97386.47;1685287;82;25822;-89
2022/09/03 01:49:37;;;;;;;9.30;5.50;;;;;;;8.18;73.32;97394.53;1703651;82;25800;-89
2022/09/03 01:52:25;;;;;;;10.25;6.05;;;;;;;8.19;73.30;97385.44;1682851;82;26408;-89
2022/09/03 01:55:08;;;;;;;8.53;5.60;;;;;;;8.17;73.25;97389.34;1691068;83;25793;-89
2022/09/03 01:57:56;;;;;;;8.68;5.58;;;;;;;8.16;73.34;97389.03;1743165;82;28094;-90
2022/09/03 02:00:24;;;;;;;9.53;6.40;;;;;;;8.16;73.38;97387.17;1707769;82;25815;-90
2022/09/03 02:02:52;;;;;;;13.03;6.22;;;;;;;8.17;73.36;97383.45;1714279;82;25790;-90
2022/09/03 02:05:23;;;;;;;9.15;5.65;;;;;;;8.21;73.41;97397.35;1686999;82;25737;-89
2022/09/03 02:08:00;;;;;;;8.95;6.22;;;;;;;8.18;73.58;97394.53;1709131;82;25725;-89
2022/09/03 02:10:41;;;;;;;8.33;5.85;;;;;;;8.17;73.79;97392.04;1712468;82;28225;-90
2022/09/03 02:13:13;;;;;;;9.18;6.05;;;;;;;8.19;73.96;97396.20;1702663;82;26414;-89
2022/09/03 02:15:44;;;;;;;12.33;6.70;;;;;;;8.22;74.09;97400.33;1730188;82;25726;-90
2022/09/03 02:18:22;;;;;;;9.30;6.40;;;;;;;8.25;74.27;97402.63;1686431;83;25735;-89
2022/09/03 02:20:53;;;;;;;12.55;6.30;;;;;;;8.28;74.38;97399.05;1691644;83;25742;-90
2022/09/03 02:23:19;;;;;;;13.90;6.72;;;;;;;8.34;74.40;97395.27;1687751;83;27391;-89
2022/09/03 02:25:51;;;;;;;13.95;7.30;;;;;;;8.42;74.34;97409.92;1704239;82;25255;-88
2022/09/03 02:28:18;;;;;;;11.53;7.45;;;;;;;8.47;74.33;97406.11;1672444;83;25842;-88
2022/09/03 02:30:45;;;;;;;13.28;7.58;;;;;;;8.53;74.47;97402.64;1689217;83;25788;-89
2022/09/03 02:33:12;;;;;;;10.15;7.30;;;;;;;8.58;74.45;97403.69;1717595;83;25875;-90
2022/09/03 02:35:40;;;;;;;19.82;7.58;;;;;;;8.64;74.31;97408.80;1717434;83;27455;-89
2022/09/03 02:38:21;;;;;;;12.93;7.37;;;;;;;8.67;74.39;97407.06;1689797;83;25740;-89
2022/09/03 02:40:48;;;;;;;14.58;8.58;;;;;;;8.64;74.46;97409.64;1707671;82;25795;-89
2022/09/03 02:43:22;;;;;;;12.45;8.10;;;;;;;8.59;74.53;97405.35;1714003;82;25815;-89
2022/09/03 02:45:51;;;;;;;12.37;7.90;;;;;;;8.63;74.65;97402.59;1707445;82;25967;-88
2022/09/03 02:48:22;;;;;;;12.35;8.05;;;;;;;8.66;74.75;97403.55;1713786;82;27416;-88
2022/09/03 02:50:49;;;;;;;11.33;7.30;;;;;;;8.68;74.78;97406.04;1714668;82;25249;-86
2022/09/03 02:53:16;;;;;;;12.23;7.62;;;;;;;8.71;74.82;97400.75;1719627;81;25708;-89
2022/09/03 02:55:43;;;;;;;10.53;6.97;;;;;;;8.73;74.85;97400.04;1723005;81;25675;-89
2022/09/03 02:58:09;;;;;;;11.08;7.37;;;;;;;8.72;74.95;97396.52;1724169;82;25266;-91
2022/09/03 03:00:36;;;;;;;11.85;7.22;;;;;;;8.70;74.96;97407.99;1717943;81;28107;-90
2022/09/03 03:03:05;;;;;;;11.65;7.90;;;;;;;8.72;74.99;97401.90;1739724;81;25808;-89
2022/09/03 03:05:54;;;;;;;11.30;7.22;;;;;;;8.78;74.90;97406.50;1719296;81;25968;-90
2022/09/03 03:08:26;;;;;;;15.78;8.13;;;;;;;8.80;75.00;97400.41;1733512;82;26384;-90
2022/09/03 03:10:57;;;;;;;12.40;6.80;;;;;;;8.85;74.99;97411.90;1715011;82;25710;-88
2022/09/03 03:13:28;;;;;;;12.03;7.37;;;;;;;8.87;75.08;97402.59;1696840;81;27371;-88
2022/09/03 03:16:09;;;;;;;10.93;7.40;;;;;;;8.92;75.13;97396.63;1709451;81;25734;-88
2022/09/03 03:18:33;;;;;;;11.93;7.20;;;;;;;8.96;75.08;97398.69;1710878;82;25874;-88
2022/09/03 03:21:05;;;;;;;11.22;6.92;;;;;;;8.97;75.21;97399.52;1718100;81;25779;-87
2022/09/03 03:23:33;;;;;;;13.75;6.62;;;;;;;8.99;75.23;97392.91;1741908;81;26517;-86
2022/09/03 03:26:05;;;;;;;13.40;7.78;;;;;;;9.02;75.24;97393.86;1740261;81;27455;-87
2022/09/03 03:28:33;;;;;;;12.37;7.03;;;;;;;9.01;75.36;97400.28;1738106;81;25973;-87
2022/09/03 03:31:11;;;;;;;11.65;7.30;;;;;;;9.06;75.46;97389.43;1743506;82;25705;-87
2022/09/03 03:33:39;;;;;;;13.78;7.70;;;;;;;9.10;75.42;97396.05;1743519;82;25967;-87
2022/09/03 03:36:08;;;;;;;14.93;7.53;;;;;;;9.11;75.46;97393.67;1743174;82;25677;-87
2022/09/03 03:38:35;;;;;;;12.00;7.08;;;;;;;9.16;75.37;97387.18;1728452;82;27326;-87
2022/09/03 03:41:12;;;;;;;12.55;7.65;;;;;;;9.14;75.31;97387.37;1713438;81;25831;-87
2022/09/03 03:43:38;;;;;;;11.73;7.50;;;;;;;9.15;75.40;97384.17;1728926;82;26449;-88
2022/09/03 03:46:07;;;;;;;10.88;7.37;;;;;;;9.16;75.51;97384.48;1713311;81;25838;-86
2022/09/03 03:48:34;;;;;;;12.10;7.50;;;;;;;9.16;75.50;97381.28;1741758;81;25766;-86
2022/09/03 03:51:07;;;;;;;10.18;6.85;;;;;;;9.19;75.63;97382.70;1741294;82;27418;-86
2022/09/03 03:53:37;;;;;;;14.05;7.05;;;;;;;9.17;75.64;97378.06;1718652;82;25777;-88
2022/09/03 03:56:08;;;;;;;9.00;6.95;;;;;;;9.20;75.79;97380.33;1734627;82;25765;-87
2022/09/03 03:58:36;;;;;;;12.53;7.00;;;;;;;9.21;75.71;97378.78;1735200;82;25708;-89
2022/09/03 04:01:08;;;;;;;11.57;7.12;;;;;;;9.24;75.66;97370.30;1701730;81;25938;-88
2022/09/03 04:03:36;;;;;;;12.75;7.95;;;;;;;9.29;75.68;97368.36;1696369;83;27433;-88
2022/09/03 04:06:04;;;;;;;11.68;7.83;;;;;;;9.32;75.65;97363.37;1712270;83;25695;-88
2022/09/03 04:08:36;;;;;;;12.20;7.22;;;;;;;9.34;75.58;97366.70;1720445;83;25699;-87
2022/09/03 04:11:05;;;;;;;14.33;7.30;;;;;;;9.38;75.48;97364.44;1696342;83;26371;-89
2022/09/03 04:13:35;;;;;;;11.40;7.50;;;;;;;9.41;75.45;97366.73;1704540;82;26400;-88
2022/09/03 04:16:09;;;;;;;11.12;6.92;;;;;;;9.45;75.49;97367.95;1724280;83;27354;-87
2022/09/03 04:18:37;;;;;;;13.68;7.62;;;;;;;9.49;75.46;97369.22;1721072;83;25753;-87
2022/09/03 04:21:11;;;;;;;11.78;7.45;;;;;;;9.51;75.50;97369.84;1671283;84;25734;-87
2022/09/03 04:23:41;;;;;;;13.22;7.62;;;;;;;9.53;75.45;97375.86;1686080;84;25745;-87
2022/09/03 04:26:10;;;;;;;15.78;7.95;;;;;;;9.55;75.37;97376.46;1671469;83;25651;-87
2022/09/03 04:28:37;;;;;;;12.78;7.25;;;;;;;9.57;75.36;97383.83;1684955;84;27425;-87
2022/09/03 04:31:08;;;;;;;13.93;8.33;;;;;;;9.60;75.32;97382.08;1673235;84;26369;-86
2022/09/03 04:33:36;;;;;;;14.63;7.90;;;;;;;9.62;75.29;97384.05;1681786;84;25263;-87
2022/09/03 04:36:19;;;;;;;16.73;7.97;;;;;;;9.65;75.29;97386.86;1719114;82;26329;-86
2022/09/03 04:38:49;;;;;;;12.60;8.18;;;;;;;9.67;75.26;97378.86;1697570;83;25767;-86
2022/09/03 04:41:23;;;;;;;15.90;8.25;;;;;;;9.68;75.22;97381.87;1697582;84;27558;-87
2022/09/03 04:43:52;;;;;;;11.50;8.15;;;;;;;9.69;75.20;97384.88;1708153;83;25733;-87
2022/09/03 04:46:21;;;;;;;14.87;8.30;;;;;;;9.65;75.24;97375.56;1707844;83;25786;-86
2022/09/03 04:48:50;;;;;;;13.22;8.48;;;;;;;9.65;75.35;97382.30;1695365;83;26414;-87
2022/09/03 04:51:21;;;;;;;12.82;8.40;;;;;;;9.68;75.33;97386.43;1681023;84;25749;-86
2022/09/03 04:53:54;;;;;;;11.55;7.87;;;;;;;9.69;75.43;97378.14;1710750;83;29232;-86
2022/09/03 04:56:25;;;;;;;15.88;8.08;;;;;;;9.68;75.50;97383.22;1718187;82;25760;-86
2022/09/03 04:58:58;;;;;;;14.50;7.60;;;;;;;9.69;75.59;97383.53;1703210;82;25720;-87
2022/09/03 05:01:28;;;;;;;13.30;8.20;;;;;;;9.73;75.72;97383.44;1723327;82;26082;-86
2022/09/03 05:03:56;;;;;;;12.60;7.55;;;;;;;9.75;75.84;97396.20;1725415;83;25648;-86
2022/09/03 05:06:24;;;;;;;12.85;8.23;;;;;;;9.78;75.91;97398.17;1725527;83;28171;-86
2022/09/03 05:08:53;;;;;;;11.70;8.20;;;;;;;9.79;75.98;97407.89;1725271;83;25708;-86
2022/09/03 05:11:21;;;;;;;12.80;7.87;;;;;;;9.82;75.92;97408.84;1725234;82;26387;-86
2022/09/03 05:13:52;;;;;;;14.07;8.25;;;;;;;9.85;75.92;97410.61;1677929;84;25742;-85
2022/09/03 05:16:18;;;;;;;15.25;8.70;;;;;;;9.87;75.89;97409.89;1697497;84;25863;-86
2022/09/03 05:18:46;;;;;;;15.13;8.20;;;;;;;9.88;75.96;97410.72;1697608;83;27364;-85
2022/09/03 05:21:18;;;;;;;12.07;7.70;;;;;;;9.94;75.96;97412.58;1725275;83;25830;-86
2022/09/03 05:23:47;;;;;;;13.95;8.08;;;;;;;9.96;75.87;97414.55;1725534;82;25819;-87
2022/09/03 05:26:19;;;;;;;15.48;8.58;;;;;;;9.95;75.89;97411.55;1697049;83;26579;-86
2022/09/03 05:28:46;;;;;;;10.40;7.67;;;;;;;9.98;75.86;97415.18;1713424;83;25827;-85
2022/09/03 05:31:20;;;;;;;14.15;8.38;;;;;;;10.01;75.82;97412.08;1725230;83;28171;-86
2022/09/03 05:33:52;;;;;;;11.57;8.18;;;;;;;10.03;75.95;97408.63;1685777;84;25911;-86
2022/09/03 05:36:22;;;;;;;12.58;8.18;;;;;;;10.04;76.07;97410.29;1695282;84;25702;-86
2022/09/03 05:38:49;;;;;;;13.25;8.00;;;;;;;10.09;76.07;97419.44;1712279;82;25952;-86
2022/09/03 05:41:17;;;;;;;13.05;8.53;;;;;;;10.14;76.05;97418.82;1692161;84;25708;-86
2022/09/03 05:43:44;;;;;;;12.05;7.78;;;;;;;10.18;76.03;97408.42;1688869;84;27050;-86
2022/09/03 05:46:19;;;;;;;10.32;7.67;;;;;;;10.22;75.97;97410.53;1672767;84;25865;-86
2022/09/03 05:48:42;;;;;;;12.88;7.78;;;;;;;10.28;75.97;97409.69;1696699;83;25786;-86
2022/09/03 05:51:17;;;;;;;12.37;7.53;;;;;;;10.36;75.93;97410.84;1724355;83;25825;-86
2022/09/03 05:53:46;;;;;;;11.22;7.62;;;;;;;10.41;75.82;97402.92;1696229;83;26034;-85
2022/09/03 05:56:17;;;;;;;13.93;8.18;;;;;;;10.45;75.70;97397.95;1696090;83;28181;-86
2022/09/03 05:58:47;;;;;;;12.73;8.20;;;;;;;10.48;75.77;97400.23;1705373;83;25691;-85
2022/09/03 06:01:24;;;;;;;14.47;8.28;;;;;;;10.51;75.82;97396.25;1727895;82;25248;-86
2022/09/03 06:04:01;;;;;;;12.88;8.25;;;;;;;10.53;75.74;97398.23;1740146;81;25938;-86
2022/09/03 06:06:30;;;;;;;13.95;8.48;;;;;;;10.57;75.71;97404.88;1722170;82;26300;-86
2022/09/03 06:09:02;;;;;;;12.25;8.23;;;;;;;10.59;75.66;97404.15;1715934;82;27343;-86
2022/09/03 06:11:31;;;;;;;14.58;8.45;;;;;;;10.63;75.72;97401.31;1746651;81;25859;-86
2022/09/03 06:14:00;;;;;;;11.95;8.23;;;;;;;10.67;75.70;97405.26;1714722;81;25730;-86
2022/09/03 06:16:30;;;;;;;11.05;8.38;;;;;;;10.72;75.69;97406.81;1746602;81;25859;-86
2022/09/03 06:18:56;;;;;;;14.80;8.98;;;;;;;10.72;75.77;97408.16;1746456;81;25916;-86
2022/09/03 06:21:23;;;;;;;13.95;8.50;;;;;;;10.69;75.84;97401.31;1746726;81;27401;-86
2022/09/03 06:23:54;;;;;;;13.20;8.95;;;;;;;10.73;75.96;97412.00;1746551;81;25695;-86
2022/09/03 06:26:21;;;;;;;16.30;8.50;;;;;;;10.75;75.96;97407.72;1746863;81;25761;-86
2022/09/03 06:28:48;;;;;;;12.28;8.13;;;;;;;10.81;75.98;97410.94;1745239;81;26331;-86
2022/09/03 06:31:18;;;;;;;13.72;9.03;;;;;;;10.84;75.96;97413.22;1715132;83;25801;-86
2022/09/03 06:33:46;;;;;;;16.75;9.48;;;;;;;10.88;75.95;97413.08;1746907;81;28119;-86
2022/09/03 06:36:16;;;;;;;12.45;8.23;;;;;;;10.93;75.92;97408.40;1746479;80;25308;-87
2022/09/03 06:38:44;;;;;;;10.78;7.97;;;;;;;10.98;75.97;97404.03;1740531;82;25797;-87
2022/09/03 06:41:23;;;;;;;13.40;9.73;;;;;;;11.05;76.05;97404.81;1735488;82;26331;-88
2022/09/03 06:43:46;;;;;;;15.13;9.30;;;;;;;11.12;76.00;97408.31;1729919;82;26341;-88
2022/09/03 06:46:18;;;;;;;13.53;9.03;;;;;;;11.19;76.02;97407.77;1710011;82;25960;-87
2022/09/03 06:48:46;;;;;;;15.00;9.03;;;;;;;11.27;75.87;97412.61;1743258;82;25772;-87
2022/09/03 06:51:19;;;;;;;15.72;9.93;;;;;;;11.35;75.89;97415.09;1745539;81;25691;-87
2022/09/03 06:53:49;;;;;;;14.78;9.08;;;;;;;11.43;75.83;97416.17;1727739;81;25701;-87
2022/09/03 06:56:26;;;;;;;15.93;9.23;;;;;;;11.50;75.71;97425.06;1732625;82;25813;-86
2022/09/03 06:58:56;;;;;;;12.58;8.40;;;;;;;11.58;75.59;97429.41;1740740;81;27342;-88
2022/09/03 07:01:27;;;;;;;12.93;8.45;;;;;;;11.66;75.42;97436.73;1734398;80;25771;-88
2022/09/03 07:04:00;;;;;;;11.93;8.38;;;;;;;11.71;75.20;97435.53;1694139;83;25781;-88
2022/09/03 07:06:37;;;;;;;12.82;8.48;;;;;;;11.75;75.39;97438.64;1706207;82;25906;-88
2022/09/03 07:09:08;;;;;;;13.62;8.90;;;;;;;11.81;75.47;97444.06;1718972;83;25912;-88
2022/09/03 07:11:35;;;;;;;13.98;8.70;;;;;;;11.88;75.30;97444.83;1703178;83;28271;-88
2022/09/03 07:14:05;;;;;;;14.13;8.05;;;;;;;11.96;75.18;97443.72;1700370;83;25741;-88
2022/09/03 07:16:36;;;;;;;15.70;9.18;;;;;;;12.05;75.12;97442.95;1727694;83;25418;-88
2022/09/03 07:19:06;;;;;;;16.00;8.13;;;;;;;12.11;75.14;97443.41;1686175;83;26416;-88
2022/09/03 07:21:37;;;;;;;13.83;7.78;;;;;;;12.19;75.34;97444.52;1711287;83;25692;-88
2022/09/03 07:24:05;;;;;;;11.83;7.93;;;;;;;12.29;75.34;97442.66;1689519;83;27379;-88
2022/09/03 07:26:35;;;;;;;11.57;8.03;;;;;;;12.39;75.08;97442.98;1716455;82;25932;-89
2022/09/03 07:29:02;;;;;;;14.20;7.83;;;;;;;12.46;74.81;97448.63;1678151;83;25711;-89
2022/09/03 07:31:33;;;;;;;11.57;7.72;;;;;;;12.52;74.60;97443.70;1712083;83;25909;-88
2022/09/03 07:34:06;;;;;;;10.28;6.60;;;;;;;12.57;74.54;97434.36;1712879;83;25743;-88
2022/09/03 07:36:44;;;;;;;10.30;6.78;;;;;;;12.68;74.53;97438.77;1712663;83;27376;-88
2022/09/03 07:39:13;;;;;;;11.75;7.10;;;;;;;12.76;74.32;97441.17;1668647;85;25851;-88
2022/09/03 07:41:44;;;;;;;14.45;7.25;;;;;;;12.86;74.24;97436.05;1652841;83;25753;-87
2022/09/03 07:44:14;;;;;;;10.08;6.47;;;;;;;12.94;74.25;97441.17;1674629;83;25688;-88
2022/09/03 07:46:42;;;;;;;13.22;6.55;;;;;;;13.05;74.19;97435.52;1684289;84;25820;-86
2022/09/03 07:49:10;;;;;;;8.58;6.33;;;;;;;13.12;74.27;97435.77;1703200;83;27418;-88
2022/09/03 07:51:38;;;;;;;10.10;7.65;;;;;;;13.22;74.16;97440.15;1707129;83;26369;-88
2022/09/03 07:54:09;;;;;;;10.60;6.87;;;;;;;13.29;74.18;97435.45;1707440;83;25849;-86
2022/09/03 07:56:38;;;;;;;12.55;6.40;;;;;;;13.38;74.12;97447.37;1699963;84;25793;-87
2022/09/03 07:59:05;;;;;;;9.18;5.17;;;;;;;13.48;73.99;97447.65;1705143;83;25855;-88
2022/09/03 08:01:34;;;;;;;7.92;4.55;;;;;;;13.55;74.00;97432.11;1685900;83;28284;-87
2022/09/03 08:04:03;;;;;;;8.60;5.45;;;;;;;13.66;74.10;97428.61;1696845;83;25663;-89
2022/09/03 08:06:30;;;;;;;8.18;5.50;;;;;;;13.80;74.29;97427.37;1720957;83;25743;-88
2022/09/03 08:09:01;;;;;;;7.25;5.00;;;;;;;13.92;74.34;97432.30;1680861;84;26571;-88
2022/09/03 08:11:30;;;;;;;8.93;5.53;;;;;;;14.09;74.24;97422.97;1718002;83;26282;-88
2022/09/03 08:14:01;;;;;;;7.37;5.00;;;;;;;14.24;74.03;97432.03;1706520;82;27450;-89
2022/09/03 08:16:41;;;;;;;6.58;4.70;;;;;;;14.37;73.90;97433.97;1727384;83;25786;-91
2022/09/03 08:19:07;;;;;;;6.35;4.50;;;;;;;14.49;73.84;97434.02;1712294;82;25856;-88
2022/09/03 08:21:36;;;;;;;8.65;4.55;;;;;;;14.55;73.32;97441.77;1727571;82;25904;-88
2022/09/03 08:24:03;;;;;;;8.35;5.05;;;;;;;14.62;73.15;97447.36;1727579;83;26380;-88
2022/09/03 08:26:33;;;;;;;5.92;4.22;;;;;;;14.68;73.13;97454.59;1716331;83;27219;-88
2022/09/03 08:29:00;;;;;;;6.97;4.25;;;;;;;14.73;72.72;97447.89;1698495;83;25742;-89
2022/09/03 08:31:28;;;;;;;8.98;4.28;;;;;;;14.77;72.64;97447.73;1687887;83;25902;-90
2022/09/03 08:33:58;;;;;;;4.22;3.58;;;;;;;14.80;72.49;97441.00;1727605;82;26298;-88
2022/09/03 08:36:28;;;;;;;7.72;4.03;;;;;;;14.84;72.53;97438.11;1707066;83;25934;-91
2022/09/03 08:38:57;;;;;;;5.70;3.58;;;;;;;14.88;72.40;97437.08;1727892;82;27336;-90
2022/09/03 08:41:59;;;;;;;7.08;3.65;;;;;;;14.90;72.20;97443.94;1701071;82;25755;-91
2022/09/03 08:44:40;;;;;;;5.20;3.47;;;;;;;14.92;72.05;97436.38;1720469;83;25754;-87
2022/09/03 08:47:30;;;;;;;4.83;3.37;;;;;;;14.94;71.78;97436.14;1728080;82;26387;-90
2022/09/03 08:50:28;;;;;;;6.17;3.95;;;;;;;14.98;71.83;97437.30;1727652;82;25790;-89
2022/09/03 08:53:13;;;;;;;4.85;3.85;;;;;;;15.00;71.63;97435.17;1716474;83;28033;-90
2022/09/03 08:56:09;;;;;;;5.97;3.75;;;;;;;15.02;71.67;97436.59;1698413;83;25827;-89
2022/09/03 08:58:37;;;;;;;7.35;3.70;;;;;;;15.05;71.55;97429.33;1679592;83;25795;-89
2022/09/03 09:01:50;;;;;;;4.65;3.58;;;;;;;15.10;71.50;97436.22;1727452;80;25680;-90
2022/09/03 09:04:43;;;;;;;4.47;3.45;;;;;;;15.17;71.46;97438.83;1726169;81;25889;-92
2022/09/03 09:07:31;;;;;;;3.85;2.95;;;;;;;15.26;71.35;97434.66;1701033;82;27491;-91
2022/09/03 09:10:27;;;;;;;7.22;3.30;;;;;;;15.40;71.22;97435.22;1700864;81;25847;-91
2022/09/03 09:13:23;;;;;;;3.70;3.25;;;;;;;15.57;71.14;97439.41;1730767;81;25686;-90
2022/09/03 09:16:31;;;;;;;4.65;3.45;;;;;;;15.68;70.77;97434.45;1712019;82;25740;-90
2022/09/03 09:19:37;;;;;;;3.33;2.70;;;;;;;15.81;70.66;97436.88;1711808;82;25894;-95
2022/09/03 09:22:15;;;;;;;3.62;2.95;;;;;;;15.98;70.68;97436.36;1624674;87;27413;-91
2022/09/03 09:24:45;;;;;;;6.90;4.17;;;;;;;16.10;70.23;97452.63;1633098;86;25882;-92
2022/09/03 09:27:18;;;;;;;4.78;3.17;;;;;;;16.18;70.09;97442.16;1633604;86;25847;-91
2022/09/03 09:29:50;;;;;;;4.22;3.20;;;;;;;16.35;69.92;97448.16;1632970;86;26468;-91
2022/09/03 09:32:18;;;;;;;;;;;;;;;16.56;70.08;97441.96;1636233;86;25909;-93
2022/09/03 09:34:45;;;;;;;4.60;2.95;;;;;;;16.79;69.28;97441.80;1624641;86;28291;-92
2022/09/03 09:37:15;;;;;;;4.15;2.90;;;;;;;16.95;68.97;97439.31;1624523;86;25875;-92
2022/09/03 09:39:56;;;;;;;3.45;2.70;;;;;;;17.15;69.15;97434.13;1648471;86;25811;-93
2022/09/03 09:42:23;;;;;;;4.17;3.10;;;;;;;17.28;68.88;97434.58;1644130;87;25833;-95
2022/09/03 09:44:51;;;;;;;5.87;3.27;;;;;;;17.36;67.84;97428.42;1619620;87;25863;-90
2022/09/03 09:47:34;;;;;;;11.88;3.15;;;;;;;17.51;68.26;97436.23;1617763;87;27464;-87
2022/09/03 09:50:03;;;;;;;3.47;2.87;;;;;;;17.93;68.38;97435.65;1639564;87;25822;-93
2022/09/03 09:52:30;;;;;;;6.37;3.00;;;;;;;18.27;67.88;97437.06;1626580;87;25799;-92
2022/09/03 09:55:11;;;;;;;8.30;3.37;;;;;;;18.50;66.72;97427.69;1617880;87;25837;-94
2022/09/03 09:57:39;;;;;;;4.80;3.20;;;;;;;18.91;66.74;97434.32;1720372;82;25729;-88
2022/09/03 10:00:12;;;;;;;4.85;2.70;;;;;;;19.49;66.52;97431.64;1715370;82;27318;-93
2022/09/03 10:02:53;;;;;;;3.75;2.27;;;;;;;19.80;65.37;97433.41;1703771;82;25702;-91
2022/09/03 10:05:24;;;;;;;4.10;2.65;;;;;;;19.93;64.66;97434.78;1703900;82;25756;-89
2022/09/03 10:08:06;;;;;;;4.35;2.58;;;;;;;19.94;64.28;97426.84;1703660;82;25788;-91
2022/09/03 10:10:41;;;;;;;4.92;3.02;;;;;;;19.98;63.92;97423.84;1688294;82;25789;-91
2022/09/03 10:13:18;;;;;;;4.03;2.98;;;;;;;20.29;63.67;97420.59;1714052;82;28281;-91
2022/09/03 10:15:53;;;;;;;4.35;3.33;;;;;;;20.50;62.69;97419.55;1720827;82;25860;-92
2022/09/03 10:18:56;;;;;;;3.85;3.02;;;;;;;20.66;62.35;97421.72;1731145;82;25255;-93
2022/09/03 10:21:26;;;;;;;;;;;;;;;20.79;62.11;97393.18;1688326;82;25712;-91
2022/09/03 10:24:22;;;;;;;3.72;2.85;;;;;;;21.13;60.10;97404.34;1726789;82;25849;-91
2022/09/03 10:26:49;;;;;;;3.50;2.22;;;;;;;21.39;60.64;97402.92;1714595;81;27570;-91
2022/09/03 10:29:20;;;;;;;2.87;2.35;;;;;;;21.39;60.64;97402.92;1741860;81;25842;-88
2022/09/03 10:32:22;;;;;;;3.93;1.90;;;;;;;21.57;59.66;97410.55;1740766;82;25928;-90
2022/09/03 10:34:57;;;;;;;4.03;2.50;;;;;;;;;;1733087;81;25916;-93
2022/09/03 10:37:41;;;;;;;4.65;2.45;;;;;;;21.62;58.76;97417.92;1711290;82;25804;-90
2022/09/03 10:40:48;;;;;;;3.45;2.50;;;;;;;21.82;58.46;97412.34;1737091;82;28172;-94
2022/09/03 10:43:49;;;;;;;3.65;2.35;;;;;;;21.79;57.97;97419.23;1713235;82;25808;-95
2022/09/03 10:46:21;;;;;;;2.52;2.25;;;;;;;21.60;56.93;97418.23;1715905;81;25678;-91
2022/09/03 10:49:18;;;;;;;4.08;2.30;;;;;;;21.39;57.09;97420.77;1716767;82;25718;-90
2022/09/03 10:51:56;;;;;;;2.83;2.45;;;;;;;21.31;57.41;97416.69;1713356;83;25837;-90
2022/09/03 10:55:06;;;;;;;4.58;2.45;;;;;;;21.39;57.08;97413.91;1677068;83;27399;-90
2022/09/03 10:57:47;;;;;;;4.47;2.70;;;;;;;21.18;56.69;97409.86;1706695;83;25810;-92
2022/09/03 11:00:17;;;;;;;3.12;2.50;;;;;;;20.99;56.55;97410.17;1702104;83;25925;-92
2022/09/03 11:03:04;;;;;;;4.90;2.33;;;;;;;20.74;56.17;97407.47;1728678;82;25838;-90
2022/09/03 11:05:38;;;;;;;2.17;1.98;;;;;;;20.62;56.78;97408.30;1721266;81;25862;-89
2022/09/03 11:08:29;;;;;;;2.92;2.25;;;;;;;20.76;57.39;97392.94;1749723;81;27355;-93
2022/09/03 11:11:18;;;;;;;3.40;2.17;;;;;;;21.06;57.84;97401.09;1724249;81;25738;-91
2022/09/03 11:14:09;;;;;;;2.80;2.52;;;;;;;21.31;56.63;97393.91;1721064;81;26032;-92
2022/09/03 11:16:49;;;;;;;5.87;2.50;;;;;;;21.56;57.06;97392.42;1719679;81;26645;-91
2022/09/03 11:19:23;;;;;;;5.30;2.90;;;;;;;21.77;56.82;97396.70;1741241;81;25822;-92
2022/09/03 11:21:51;;;;;;;4.87;2.70;;;;;;;22.04;57.00;97389.98;1719329;81;29383;-90
2022/09/03 11:24:25;;;;;;;3.58;2.65;;;;;;;22.26;56.35;97390.37;1741212;81;25837;-91
2022/09/03 11:27:23;;;;;;;3.15;2.72;;;;;;;22.33;55.87;97395.00;1720415;81;25806;-90
2022/09/03 11:30:00;;;;;;;3.25;2.67;;;;;;;22.24;54.82;97387.91;1729897;81;26004;-91
2022/09/03 11:32:55;;;;;;;3.22;2.77;;;;;;;22.22;54.51;97390.11;1748840;81;26110;-96
2022/09/03 11:35:30;;;;;;;3.25;2.83;;;;;;;22.08;54.37;97389.69;1720080;83;27432;-93
2022/09/03 11:38:07;;;;;;;3.77;2.85;;;;;;;21.93;54.00;97383.70;1717928;81;25706;-96
2022/09/03 11:40:38;;;;;;;3.02;2.72;;;;;;;21.79;54.27;97380.77;1726224;81;25801;-95
2022/09/03 11:43:31;;;;;;;4.28;3.25;;;;;;;21.59;53.85;97386.92;1725328;81;25846;-89
2022/09/03 11:46:24;;;;;;;5.42;3.50;;;;;;;21.49;54.30;97386.43;1729053;81;25817;-89
2022/09/03 11:48:56;;;;;;;3.45;3.10;;;;;;;21.37;54.15;97377.70;1724900;81;28049;-90
2022/09/03 11:51:34;;;;;;;4.65;3.10;;;;;;;21.30;54.42;97379.91;1702432;81;25894;-90
2022/09/03 11:54:22;;;;;;;9.38;7.92;;;;;;;21.24;54.66;97384.61;1723836;81;25799;-90
2022/09/03 11:56:49;;;;;;;3.42;3.12;;;;;;;21.18;54.56;97374.18;1736856;81;25795;-89
2022/09/03 11:59:24;;;;;;;4.30;3.12;;;;;;;21.17;54.51;97381.29;1741404;81;26572;-90
2022/09/03 12:01:57;;;;;;;4.20;3.80;;;;;;;21.07;54.32;97375.29;1739674;81;27409;-90
2022/09/03 12:04:35;;;;;;;13.25;7.72;;;;;;;21.02;54.10;97383.52;1723732;82;25909;-89
2022/09/03 12:07:13;;;;;;;10.80;6.45;;;;;;;20.96;54.30;97377.80;1729756;81;25796;-88
2022/09/03 12:09:54;;;;;;;21.45;12.60;;;;;;;20.79;54.60;97350.66;1690819;83;25786;-88
2022/09/03 12:12:38;;;;;;;8.03;4.85;;;;;;;20.88;54.87;97374.26;1709906;82;25713;-87
2022/09/03 12:15:33;;;;;;;5.78;3.77;;;;;;;20.78;55.10;97377.00;1728795;82;27456;-89
2022/09/03 12:18:18;;;;;;;3.75;3.35;;;;;;;20.78;55.10;97377.00;1674845;83;25810;-91
2022/09/03 12:20:47;;;;;;;4.62;3.50;;;;;;;20.71;54.43;97388.81;1738598;82;25894;-89